Upper Holland, Pennsylvania
Current Conditions -  °F | °C
As of 8:54 AM on Monday 20 Oct 2014 (Local Time) from KPNE Reporting Station
Clear Clear  
Wind Chill: 46°   Ceiling: Unl
Heat Index: 46°   Visibility: 10mi
Dew Point: 31°   Wind: 3mph
Humidity: 56%   Direction: 210°SSW
Pressure: 30.15"   Gusts: NA
Location:  40.1496°N, 74.9856°W
Report Text: KPNE 201254Z 21003KT 10SM CLR 08/M01 A3015 RMK AO2 SLP211 T00781006
Loading
Personal Weather Stations






























Interactive Weather Map
Tropical Storm Tracking
New forecast layout! Learn more

10-Day Weather Forecast

Advertisements
Track Severe Weather on mobile